sensor_id;sensor_type;location;lat;lon;timestamp;temperature;humidity
22456;DHT22;11395;53.204;6.502;2023-02-03T00:00:04;22.30;57.30
22456;DHT22;11395;53.204;6.502;2023-02-03T00:02:37;22.30;57.30
22456;DHT22;11395;53.204;6.502;2023-02-03T00:05:03;22.20;57.30
22456;DHT22;11395;53.204;6.502;2023-02-03T00:07:30;22.20;57.40
22456;DHT22;11395;53.204;6.502;2023-02-03T00:09:56;22.10;57.50
22456;DHT22;11395;53.204;6.502;2023-02-03T00:12:23;22.10;57.60
22456;DHT22;11395;53.204;6.502;2023-02-03T00:14:49;22.10;58.30
22456;DHT22;11395;53.204;6.502;2023-02-03T00:17:15;22.00;57.60
22456;DHT22;11395;53.204;6.502;2023-02-03T00:19:41;22.00;57.70
22456;DHT22;11395;53.204;6.502;2023-02-03T00:22:07;22.00;57.70
22456;DHT22;11395;53.204;6.502;2023-02-03T00:24:33;21.90;57.70
22456;DHT22;11395;53.204;6.502;2023-02-03T00:26:59;21.90;57.80
22456;DHT22;11395;53.204;6.502;2023-02-03T00:29:26;21.90;58.50
22456;DHT22;11395;53.204;6.502;2023-02-03T00:31:53;21.80;57.80
22456;DHT22;11395;53.204;6.502;2023-02-03T00:34:20;21.80;58.40
22456;DHT22;11395;53.204;6.502;2023-02-03T00:36:46;21.80;57.80
22456;DHT22;11395;53.204;6.502;2023-02-03T00:39:16;21.80;57.90
22456;DHT22;11395;53.204;6.502;2023-02-03T00:41:42;21.70;57.80
22456;DHT22;11395;53.204;6.502;2023-02-03T00:44:08;21.80;57.80
22456;DHT22;11395;53.204;6.502;2023-02-03T00:46:35;21.70;57.90
22456;DHT22;11395;53.204;6.502;2023-02-03T00:49:02;21.70;57.80
22456;DHT22;11395;53.204;6.502;2023-02-03T00:51:29;21.70;57.90
22456;DHT22;11395;53.204;6.502;2023-02-03T00:53:55;21.60;57.70
22456;DHT22;11395;53.204;6.502;2023-02-03T00:56:22;21.60;57.80
22456;DHT22;11395;53.204;6.502;2023-02-03T00:58:48;21.60;57.80
22456;DHT22;11395;53.204;6.502;2023-02-03T01:01:14;21.60;57.80
22456;DHT22;11395;53.204;6.502;2023-02-03T01:03:41;21.60;57.90
22456;DHT22;11395;53.204;6.502;2023-02-03T01:06:17;21.50;57.80
22456;DHT22;11395;53.204;6.502;2023-02-03T01:08:44;21.50;57.90
22456;DHT22;11395;53.204;6.502;2023-02-03T01:11:13;21.50;57.90
22456;DHT22;11395;53.204;6.502;2023-02-03T01:13:40;21.40;57.90
22456;DHT22;11395;53.204;6.502;2023-02-03T01:16:12;21.50;57.90
22456;DHT22;11395;53.204;6.502;2023-02-03T01:18:40;21.40;57.90
22456;DHT22;11395;53.204;6.502;2023-02-03T01:21:18;21.40;57.90
22456;DHT22;11395;53.204;6.502;2023-02-03T01:23:44;21.30;58.00
22456;DHT22;11395;53.204;6.502;2023-02-03T01:26:14;21.30;58.10
22456;DHT22;11395;53.204;6.502;2023-02-03T01:28:41;21.30;58.10
22456;DHT22;11395;53.204;6.502;2023-02-03T01:31:13;21.30;58.10
22456;DHT22;11395;53.204;6.502;2023-02-03T01:33:40;21.30;58.10
22456;DHT22;11395;53.204;6.502;2023-02-03T01:36:09;21.20;58.00
22456;DHT22;11395;53.204;6.502;2023-02-03T01:38:36;21.20;58.10
22456;DHT22;11395;53.204;6.502;2023-02-03T01:41:05;21.20;58.10
22456;DHT22;11395;53.204;6.502;2023-02-03T01:46:03;21.10;58.10
22456;DHT22;11395;53.204;6.502;2023-02-03T01:48:32;21.10;58.10
22456;DHT22;11395;53.204;6.502;2023-02-03T01:51:01;21.10;58.20
22456;DHT22;11395;53.204;6.502;2023-02-03T01:53:28;21.10;58.20
22456;DHT22;11395;53.204;6.502;2023-02-03T01:55:55;21.00;58.20
22456;DHT22;11395;53.204;6.502;2023-02-03T01:58:28;21.00;58.20
22456;DHT22;11395;53.204;6.502;2023-02-03T02:00:56;21.00;58.30
22456;DHT22;11395;53.204;6.502;2023-02-03T02:03:28;21.00;58.30
22456;DHT22;11395;53.204;6.502;2023-02-03T02:06:05;20.90;58.30
22456;DHT22;11395;53.204;6.502;2023-02-03T02:08:32;20.90;58.40
22456;DHT22;11395;53.204;6.502;2023-02-03T02:10:59;20.90;58.30
22456;DHT22;11395;53.204;6.502;2023-02-03T02:13:29;20.90;58.40
22456;DHT22;11395;53.204;6.502;2023-02-03T02:18:43;20.80;58.50
22456;DHT22;11395;53.204;6.502;2023-02-03T02:21:23;20.80;58.50
22456;DHT22;11395;53.204;6.502;2023-02-03T02:40:33;20.60;58.80
22456;DHT22;11395;53.204;6.502;2023-02-03T02:45:48;20.50;58.70
22456;DHT22;11395;53.204;6.502;2023-02-03T02:48:22;20.50;59.00
22456;DHT22;11395;53.204;6.502;2023-02-03T02:50:54;20.50;58.80
22456;DHT22;11395;53.204;6.502;2023-02-03T02:53:25;20.50;58.80
22456;DHT22;11395;53.204;6.502;2023-02-03T02:55:54;20.50;59.00
22456;DHT22;11395;53.204;6.502;2023-02-03T02:58:22;20.40;58.80
22456;DHT22;11395;53.204;6.502;2023-02-03T03:00:49;20.40;58.90
22456;DHT22;11395;53.204;6.502;2023-02-03T03:03:19;20.40;58.90
22456;DHT22;11395;53.204;6.502;2023-02-03T03:06:18;20.40;58.90
22456;DHT22;11395;53.204;6.502;2023-02-03T03:08:48;20.40;58.90
22456;DHT22;11395;53.204;6.502;2023-02-03T03:11:16;20.30;58.80
22456;DHT22;11395;53.204;6.502;2023-02-03T03:13:48;20.30;58.80
22456;DHT22;11395;53.204;6.502;2023-02-03T03:16:17;20.30;58.80
22456;DHT22;11395;53.204;6.502;2023-02-03T03:18:49;20.30;58.90
22456;DHT22;11395;53.204;6.502;2023-02-03T03:21:23;20.20;58.90
22456;DHT22;11395;53.204;6.502;2023-02-03T03:23:52;20.20;58.90
22456;DHT22;11395;53.204;6.502;2023-02-03T03:29:30;20.20;59.10
22456;DHT22;11395;53.204;6.502;2023-02-03T03:32:00;20.20;59.20
22456;DHT22;11395;53.204;6.502;2023-02-03T03:34:28;20.10;59.10
22456;DHT22;11395;53.204;6.502;2023-02-03T03:37:17;20.10;59.20
22456;DHT22;11395;53.204;6.502;2023-02-03T03:39:51;20.10;59.30
22456;DHT22;11395;53.204;6.502;2023-02-03T03:42:30;20.10;59.40
22456;DHT22;11395;53.204;6.502;2023-02-03T03:45:29;20.00;59.20
22456;DHT22;11395;53.204;6.502;2023-02-03T03:50:28;20.00;59.40
22456;DHT22;11395;53.204;6.502;2023-02-03T03:52:57;20.00;59.30
22456;DHT22;11395;53.204;6.502;2023-02-03T03:55:28;20.00;59.30
22456;DHT22;11395;53.204;6.502;2023-02-03T03:58:03;20.00;59.30
22456;DHT22;11395;53.204;6.502;2023-02-03T04:00:33;19.90;59.30
22456;DHT22;11395;53.204;6.502;2023-02-03T04:03:05;19.90;59.30
22456;DHT22;11395;53.204;6.502;2023-02-03T04:05:33;19.90;59.30
22456;DHT22;11395;53.204;6.502;2023-02-03T04:07:59;19.90;59.30
22456;DHT22;11395;53.204;6.502;2023-02-03T04:10:36;19.80;59.30
22456;DHT22;11395;53.204;6.502;2023-02-03T04:13:03;19.80;59.40
22456;DHT22;11395;53.204;6.502;2023-02-03T04:15:30;19.80;59.40
22456;DHT22;11395;53.204;6.502;2023-02-03T04:17:57;19.80;59.50
22456;DHT22;11395;53.204;6.502;2023-02-03T04:20:23;19.80;59.30
22456;DHT22;11395;53.204;6.502;2023-02-03T04:22:50;19.80;59.10
22456;DHT22;11395;53.204;6.502;2023-02-03T04:25:17;19.90;59.20
22456;DHT22;11395;53.204;6.502;2023-02-03T04:27:43;19.90;59.10
22456;DHT22;11395;53.204;6.502;2023-02-03T04:30:10;20.00;59.20
22456;DHT22;11395;53.204;6.502;2023-02-03T04:32:37;20.10;59.10
22456;DHT22;11395;53.204;6.502;2023-02-03T04:35:07;20.20;59.00
22456;DHT22;11395;53.204;6.502;2023-02-03T04:37:33;20.30;58.90
22456;DHT22;11395;53.204;6.502;2023-02-03T04:39:59;20.40;58.80
22456;DHT22;11395;53.204;6.502;2023-02-03T04:42:25;20.50;58.60
22456;DHT22;11395;53.204;6.502;2023-02-03T04:44:51;20.60;58.50
22456;DHT22;11395;53.204;6.502;2023-02-03T04:47:18;20.70;58.40
22456;DHT22;11395;53.204;6.502;2023-02-03T04:49:45;20.70;58.30
22456;DHT22;11395;53.204;6.502;2023-02-03T04:52:11;20.80;58.20
22456;DHT22;11395;53.204;6.502;2023-02-03T04:54:38;20.80;58.10
22456;DHT22;11395;53.204;6.502;2023-02-03T04:57:05;20.90;58.00
22456;DHT22;11395;53.204;6.502;2023-02-03T04:59:31;20.90;57.90
22456;DHT22;11395;53.204;6.502;2023-02-03T05:01:57;21.00;57.90
22456;DHT22;11395;53.204;6.502;2023-02-03T05:04:26;21.00;57.70
22456;DHT22;11395;53.204;6.502;2023-02-03T05:06:52;21.00;57.70
22456;DHT22;11395;53.204;6.502;2023-02-03T05:09:18;21.10;57.70
22456;DHT22;11395;53.204;6.502;2023-02-03T05:11:44;21.10;57.60
22456;DHT22;11395;53.204;6.502;2023-02-03T05:14:11;21.10;57.50
22456;DHT22;11395;53.204;6.502;2023-02-03T05:16:37;21.20;57.50
22456;DHT22;11395;53.204;6.502;2023-02-03T05:19:03;21.30;57.40
22456;DHT22;11395;53.204;6.502;2023-02-03T05:21:29;21.40;57.40
22456;DHT22;11395;53.204;6.502;2023-02-03T05:23:55;21.50;57.40
22456;DHT22;11395;53.204;6.502;2023-02-03T05:26:22;21.60;57.20
22456;DHT22;11395;53.204;6.502;2023-02-03T05:28:48;21.70;57.10
22456;DHT22;11395;53.204;6.502;2023-02-03T05:31:15;21.70;56.90
22456;DHT22;11395;53.204;6.502;2023-02-03T05:33:41;21.90;57.50
22456;DHT22;11395;53.204;6.502;2023-02-03T05:36:07;22.00;56.60
22456;DHT22;11395;53.204;6.502;2023-02-03T05:38:34;22.10;56.50
22456;DHT22;11395;53.204;6.502;2023-02-03T05:41:00;22.30;56.30
22456;DHT22;11395;53.204;6.502;2023-02-03T05:43:45;22.40;56.10
22456;DHT22;11395;53.204;6.502;2023-02-03T05:46:11;22.50;55.90
22456;DHT22;11395;53.204;6.502;2023-02-03T05:48:37;22.70;55.60
22456;DHT22;11395;53.204;6.502;2023-02-03T05:51:03;22.80;55.60
22456;DHT22;11395;53.204;6.502;2023-02-03T05:53:30;22.90;55.40
22456;DHT22;11395;53.204;6.502;2023-02-03T05:55:56;23.10;55.20
22456;DHT22;11395;53.204;6.502;2023-02-03T05:58:22;23.20;55.10
22456;DHT22;11395;53.204;6.502;2023-02-03T06:00:48;23.40;55.10
22456;DHT22;11395;53.204;6.502;2023-02-03T06:03:14;23.40;55.30
22456;DHT22;11395;53.204;6.502;2023-02-03T06:05:40;23.60;55.00
22456;DHT22;11395;53.204;6.502;2023-02-03T06:08:08;23.60;55.00
22456;DHT22;11395;53.204;6.502;2023-02-03T06:10:34;23.70;55.00
22456;DHT22;11395;53.204;6.502;2023-02-03T06:13:12;23.80;54.80
22456;DHT22;11395;53.204;6.502;2023-02-03T06:15:39;23.80;55.00
22456;DHT22;11395;53.204;6.502;2023-02-03T06:18:06;23.80;54.90
22456;DHT22;11395;53.204;6.502;2023-02-03T06:20:33;23.90;54.80
22456;DHT22;11395;53.204;6.502;2023-02-03T06:23:00;23.90;54.80
22456;DHT22;11395;53.204;6.502;2023-02-03T06:25:26;23.90;54.60
22456;DHT22;11395;53.204;6.502;2023-02-03T06:27:52;23.90;54.50
22456;DHT22;11395;53.204;6.502;2023-02-03T06:30:19;23.90;54.60
22456;DHT22;11395;53.204;6.502;2023-02-03T06:32:47;23.90;54.40
22456;DHT22;11395;53.204;6.502;2023-02-03T06:35:13;23.90;54.50
22456;DHT22;11395;53.204;6.502;2023-02-03T06:37:39;23.90;54.40
22456;DHT22;11395;53.204;6.502;2023-02-03T06:40:06;23.90;54.20
22456;DHT22;11395;53.204;6.502;2023-02-03T06:42:33;23.90;54.30
22456;DHT22;11395;53.204;6.502;2023-02-03T06:44:59;23.80;54.30
22456;DHT22;11395;53.204;6.502;2023-02-03T06:47:25;23.80;54.30
22456;DHT22;11395;53.204;6.502;2023-02-03T06:49:51;23.80;54.30
22456;DHT22;11395;53.204;6.502;2023-02-03T06:52:18;23.70;54.30
22456;DHT22;11395;53.204;6.502;2023-02-03T06:54:44;23.70;54.40
22456;DHT22;11395;53.204;6.502;2023-02-03T06:57:10;23.70;54.40
22456;DHT22;11395;53.204;6.502;2023-02-03T06:59:37;23.60;54.40
22456;DHT22;11395;53.204;6.502;2023-02-03T07:02:03;23.60;54.40
22456;DHT22;11395;53.204;6.502;2023-02-03T07:04:29;23.60;54.50
22456;DHT22;11395;53.204;6.502;2023-02-03T07:06:56;23.70;54.50
22456;DHT22;11395;53.204;6.502;2023-02-03T07:09:22;23.60;54.50
22456;DHT22;11395;53.204;6.502;2023-02-03T07:11:49;23.50;54.50
22456;DHT22;11395;53.204;6.502;2023-02-03T07:14:15;23.50;54.60
22456;DHT22;11395;53.204;6.502;2023-02-03T07:16:41;23.50;55.10
22456;DHT22;11395;53.204;6.502;2023-02-03T07:19:07;23.60;55.10
22456;DHT22;11395;53.204;6.502;2023-02-03T07:21:33;23.60;55.10
22456;DHT22;11395;53.204;6.502;2023-02-03T07:23:59;23.70;55.10
22456;DHT22;11395;53.204;6.502;2023-02-03T07:26:27;23.70;55.60
22456;DHT22;11395;53.204;6.502;2023-02-03T07:28:54;23.80;54.90
22456;DHT22;11395;53.204;6.502;2023-02-03T07:31:20;23.80;54.80
22456;DHT22;11395;53.204;6.502;2023-02-03T07:33:46;23.80;54.70
22456;DHT22;11395;53.204;6.502;2023-02-03T07:36:13;23.80;54.50
22456;DHT22;11395;53.204;6.502;2023-02-03T07:38:39;23.90;54.60
22456;DHT22;11395;53.204;6.502;2023-02-03T07:41:05;23.90;54.60
22456;DHT22;11395;53.204;6.502;2023-02-03T07:43:32;23.90;54.60
22456;DHT22;11395;53.204;6.502;2023-02-03T07:45:58;23.90;54.50
22456;DHT22;11395;53.204;6.502;2023-02-03T07:48:24;23.90;54.50
22456;DHT22;11395;53.204;6.502;2023-02-03T07:50:51;23.80;54.40
22456;DHT22;11395;53.204;6.502;2023-02-03T07:53:18;23.80;54.40
22456;DHT22;11395;53.204;6.502;2023-02-03T07:55:44;23.80;54.40
22456;DHT22;11395;53.204;6.502;2023-02-03T07:58:10;23.80;54.40
22456;DHT22;11395;53.204;6.502;2023-02-03T08:00:37;23.80;54.40
22456;DHT22;11395;53.204;6.502;2023-02-03T08:03:03;23.80;54.40
22456;DHT22;11395;53.204;6.502;2023-02-03T08:05:29;23.70;54.40
22456;DHT22;11395;53.204;6.502;2023-02-03T08:07:56;23.70;54.50
22456;DHT22;11395;53.204;6.502;2023-02-03T08:10:22;23.70;54.50
22456;DHT22;11395;53.204;6.502;2023-02-03T08:12:52;23.60;54.60
22456;DHT22;11395;53.204;6.502;2023-02-03T08:15:18;23.60;54.60
22456;DHT22;11395;53.204;6.502;2023-02-03T08:17:44;23.60;54.70
22456;DHT22;11395;53.204;6.502;2023-02-03T08:20:11;23.50;54.70
22456;DHT22;11395;53.204;6.502;2023-02-03T08:22:37;23.50;54.80
22456;DHT22;11395;53.204;6.502;2023-02-03T08:25:04;23.40;54.80
22456;DHT22;11395;53.204;6.502;2023-02-03T08:27:31;23.40;55.40
22456;DHT22;11395;53.204;6.502;2023-02-03T08:29:58;23.30;55.00
22456;DHT22;11395;53.204;6.502;2023-02-03T08:32:25;23.30;55.10
22456;DHT22;11395;53.204;6.502;2023-02-03T08:34:52;23.30;55.10
22456;DHT22;11395;53.204;6.502;2023-02-03T08:37:21;23.20;55.20
22456;DHT22;11395;53.204;6.502;2023-02-03T08:39:49;23.20;55.50
22456;DHT22;11395;53.204;6.502;2023-02-03T08:42:16;23.20;55.60
22456;DHT22;11395;53.204;6.502;2023-02-03T08:44:42;23.20;55.70
22456;DHT22;11395;53.204;6.502;2023-02-03T08:47:09;23.20;55.80
22456;DHT22;11395;53.204;6.502;2023-02-03T08:49:36;23.20;55.90
22456;DHT22;11395;53.204;6.502;2023-02-03T08:52:09;23.30;55.90
22456;DHT22;11395;53.204;6.502;2023-02-03T08:54:36;23.30;56.00
22456;DHT22;11395;53.204;6.502;2023-02-03T08:57:02;23.40;55.90
22456;DHT22;11395;53.204;6.502;2023-02-03T08:59:28;23.50;56.00
22456;DHT22;11395;53.204;6.502;2023-02-03T09:01:56;23.60;56.10
22456;DHT22;11395;53.204;6.502;2023-02-03T09:04:24;23.60;56.00
22456;DHT22;11395;53.204;6.502;2023-02-03T09:06:52;23.70;55.90
22456;DHT22;11395;53.204;6.502;2023-02-03T09:09:22;23.80;56.60
22456;DHT22;11395;53.204;6.502;2023-02-03T09:11:48;23.80;57.50
22456;DHT22;11395;53.204;6.502;2023-02-03T09:14:15;23.80;56.50
22456;DHT22;11395;53.204;6.502;2023-02-03T09:16:41;23.90;56.40
22456;DHT22;11395;53.204;6.502;2023-02-03T09:19:07;23.90;56.20
22456;DHT22;11395;53.204;6.502;2023-02-03T09:21:33;23.90;56.10
22456;DHT22;11395;53.204;6.502;2023-02-03T09:24:00;23.90;56.10
22456;DHT22;11395;53.204;6.502;2023-02-03T09:26:27;23.90;56.20
22456;DHT22;11395;53.204;6.502;2023-02-03T09:28:54;23.90;56.20
22456;DHT22;11395;53.204;6.502;2023-02-03T09:31:20;23.90;56.20
22456;DHT22;11395;53.204;6.502;2023-02-03T09:33:46;23.90;56.20
22456;DHT22;11395;53.204;6.502;2023-02-03T09:36:12;23.90;56.20
22456;DHT22;11395;53.204;6.502;2023-02-03T09:38:39;23.90;56.20
22456;DHT22;11395;53.204;6.502;2023-02-03T09:41:14;23.90;56.20
22456;DHT22;11395;53.204;6.502;2023-02-03T09:43:59;23.90;56.20
22456;DHT22;11395;53.204;6.502;2023-02-03T09:46:34;23.90;56.20
22456;DHT22;11395;53.204;6.502;2023-02-03T09:51:45;23.80;56.30
22456;DHT22;11395;53.204;6.502;2023-02-03T09:54:18;23.80;56.50
22456;DHT22;11395;53.204;6.502;2023-02-03T09:56:47;23.80;56.40
22456;DHT22;11395;53.204;6.502;2023-02-03T09:59:18;23.80;56.40
22456;DHT22;11395;53.204;6.502;2023-02-03T10:01:56;23.70;56.40
22456;DHT22;11395;53.204;6.502;2023-02-03T10:10:39;23.60;56.40
22456;DHT22;11395;53.204;6.502;2023-02-03T10:13:26;23.50;56.50
22456;DHT22;11395;53.204;6.502;2023-02-03T10:16:01;23.50;56.50
22456;DHT22;11395;53.204;6.502;2023-02-03T10:18:32;23.40;56.50
22456;DHT22;11395;53.204;6.502;2023-02-03T10:23:53;23.40;56.70
22456;DHT22;11395;53.204;6.502;2023-02-03T10:26:25;23.50;56.80
22456;DHT22;11395;53.204;6.502;2023-02-03T10:28:57;23.60;56.80
22456;DHT22;11395;53.204;6.502;2023-02-03T10:31:29;23.60;56.70
22456;DHT22;11395;53.204;6.502;2023-02-03T10:34:08;23.70;56.60
22456;DHT22;11395;53.204;6.502;2023-02-03T10:36:39;23.90;57.00
22456;DHT22;11395;53.204;6.502;2023-02-03T10:41:44;24.10;58.30
22456;DHT22;11395;53.204;6.502;2023-02-03T10:44:12;24.10;58.20
22456;DHT22;11395;53.204;6.502;2023-02-03T10:46:40;24.20;59.40
22456;DHT22;11395;53.204;6.502;2023-02-03T10:49:09;24.30;58.40
22456;DHT22;11395;53.204;6.502;2023-02-03T10:51:40;24.40;58.40
22456;DHT22;11395;53.204;6.502;2023-02-03T10:54:33;24.50;57.90
22456;DHT22;11395;53.204;6.502;2023-02-03T10:57:10;24.50;58.50
22456;DHT22;11395;53.204;6.502;2023-02-03T10:59:42;24.60;58.10
22456;DHT22;11395;53.204;6.502;2023-02-03T11:02:23;24.60;57.90
22456;DHT22;11395;53.204;6.502;2023-02-03T11:07:36;24.70;57.50
22456;DHT22;11395;53.204;6.502;2023-02-03T11:10:02;24.70;57.50
22456;DHT22;11395;53.204;6.502;2023-02-03T11:12:28;24.60;57.80
22456;DHT22;11395;53.204;6.502;2023-02-03T11:14:54;24.70;58.30
22456;DHT22;11395;53.204;6.502;2023-02-03T11:17:25;24.70;58.30
22456;DHT22;11395;53.204;6.502;2023-02-03T11:19:57;24.70;58.10
22456;DHT22;11395;53.204;6.502;2023-02-03T11:22:36;24.70;58.00
22456;DHT22;11395;53.204;6.502;2023-02-03T11:25:14;24.60;57.80
22456;DHT22;11395;53.204;6.502;2023-02-03T11:27:41;24.60;57.80
22456;DHT22;11395;53.204;6.502;2023-02-03T11:30:23;24.50;57.40
22456;DHT22;11395;53.204;6.502;2023-02-03T11:32:51;24.50;57.30
22456;DHT22;11395;53.204;6.502;2023-02-03T11:35:23;24.40;57.40
22456;DHT22;11395;53.204;6.502;2023-02-03T11:37:53;24.30;57.30
22456;DHT22;11395;53.204;6.502;2023-02-03T11:45:36;24.20;57.00
22456;DHT22;11395;53.204;6.502;2023-02-03T12:17:09;23.70;56.80
22456;DHT22;11395;53.204;6.502;2023-02-03T12:22:18;23.60;56.70
22456;DHT22;11395;53.204;6.502;2023-02-03T12:25:01;23.60;56.80
22456;DHT22;11395;53.204;6.502;2023-02-03T12:30:23;23.50;56.60
22456;DHT22;11395;53.204;6.502;2023-02-03T12:32:55;23.40;56.60
22456;DHT22;11395;53.204;6.502;2023-02-03T12:35:35;23.40;56.60
22456;DHT22;11395;53.204;6.502;2023-02-03T12:38:30;23.30;56.60
22456;DHT22;11395;53.204;6.502;2023-02-03T12:41:02;23.30;56.60
22456;DHT22;11395;53.204;6.502;2023-02-03T12:43:34;23.20;56.50
22456;DHT22;11395;53.204;6.502;2023-02-03T12:46:11;23.20;56.60
22456;DHT22;11395;53.204;6.502;2023-02-03T12:51:23;23.00;56.60
22456;DHT22;11395;53.204;6.502;2023-02-03T12:53:56;23.00;56.80
22456;DHT22;11395;53.204;6.502;2023-02-03T12:56:29;23.00;56.80
22456;DHT22;11395;53.204;6.502;2023-02-03T12:59:01;22.90;56.90
22456;DHT22;11395;53.204;6.502;2023-02-03T13:01:36;22.90;57.20
22456;DHT22;11395;53.204;6.502;2023-02-03T13:04:36;23.00;56.90
22456;DHT22;11395;53.204;6.502;2023-02-03T13:07:27;23.00;56.70
22456;DHT22;11395;53.204;6.502;2023-02-03T13:12:50;23.20;56.90
22456;DHT22;11395;53.204;6.502;2023-02-03T13:15:31;23.20;56.80
22456;DHT22;11395;53.204;6.502;2023-02-03T13:20:52;23.40;56.60
22456;DHT22;11395;53.204;6.502;2023-02-03T13:23:20;23.40;56.50
22456;DHT22;11395;53.204;6.502;2023-02-03T13:31:31;23.50;56.10
22456;DHT22;11395;53.204;6.502;2023-02-03T13:39:35;23.50;55.90
22456;DHT22;11395;53.204;6.502;2023-02-03T13:42:27;23.50;55.90
22456;DHT22;11395;53.204;6.502;2023-02-03T13:47:46;23.40;55.90
22456;DHT22;11395;53.204;6.502;2023-02-03T13:50:41;23.40;56.10
22456;DHT22;11395;53.204;6.502;2023-02-03T13:53:20;23.40;56.10
22456;DHT22;11395;53.204;6.502;2023-02-03T13:55:59;23.40;56.20
22456;DHT22;11395;53.204;6.502;2023-02-03T13:58:29;23.30;56.10
22456;DHT22;11395;53.204;6.502;2023-02-03T14:05:56;23.30;56.20
22456;DHT22;11395;53.204;6.502;2023-02-03T14:16:51;23.10;56.50
22456;DHT22;11395;53.204;6.502;2023-02-03T14:24:33;23.00;57.30
22456;DHT22;11395;53.204;6.502;2023-02-03T14:27:02;23.00;57.10
22456;DHT22;11395;53.204;6.502;2023-02-03T14:32:02;23.00;57.10
22456;DHT22;11395;53.204;6.502;2023-02-03T14:34:34;23.00;57.20
22456;DHT22;11395;53.204;6.502;2023-02-03T14:48:43;23.00;57.30
22456;DHT22;11395;53.204;6.502;2023-02-03T14:54:05;23.20;57.50
22456;DHT22;11395;53.204;6.502;2023-02-03T14:59:08;23.30;57.50
22456;DHT22;11395;53.204;6.502;2023-02-03T15:04:20;23.50;57.60
22456;DHT22;11395;53.204;6.502;2023-02-03T15:06:49;23.60;57.60
22456;DHT22;11395;53.204;6.502;2023-02-03T15:11:56;23.70;57.70
22456;DHT22;11395;53.204;6.502;2023-02-03T15:14:32;23.70;57.50
22456;DHT22;11395;53.204;6.502;2023-02-03T15:17:00;23.70;57.50
22456;DHT22;11395;53.204;6.502;2023-02-03T15:19:32;23.70;57.40
22456;DHT22;11395;53.204;6.502;2023-02-03T15:21:59;23.70;57.60
22456;DHT22;11395;53.204;6.502;2023-02-03T15:24:35;23.70;57.50
22456;DHT22;11395;53.204;6.502;2023-02-03T15:27:02;23.70;57.40
22456;DHT22;11395;53.204;6.502;2023-02-03T15:29:30;23.70;57.00
22456;DHT22;11395;53.204;6.502;2023-02-03T15:32:11;23.70;57.30
22456;DHT22;11395;53.204;6.502;2023-02-03T15:34:48;23.70;57.30
22456;DHT22;11395;53.204;6.502;2023-02-03T15:37:27;23.60;57.30
22456;DHT22;11395;53.204;6.502;2023-02-03T15:40:07;23.60;57.20
22456;DHT22;11395;53.204;6.502;2023-02-03T15:43:07;23.50;57.00
22456;DHT22;11395;53.204;6.502;2023-02-03T15:45:39;23.50;57.10
22456;DHT22;11395;53.204;6.502;2023-02-03T15:48:28;23.50;57.50
22456;DHT22;11395;53.204;6.502;2023-02-03T15:53:41;23.40;57.90
22456;DHT22;11395;53.204;6.502;2023-02-03T15:58:52;23.40;58.10
22456;DHT22;11395;53.204;6.502;2023-02-03T16:01:21;23.30;58.40
22456;DHT22;11395;53.204;6.502;2023-02-03T16:03:50;23.30;58.50
22456;DHT22;11395;53.204;6.502;2023-02-03T16:06:18;23.20;58.50
22456;DHT22;11395;53.204;6.502;2023-02-03T16:08:48;23.20;58.50
22456;DHT22;11395;53.204;6.502;2023-02-03T16:11:38;23.20;58.60
22456;DHT22;11395;53.204;6.502;2023-02-03T16:14:11;23.20;58.30
22456;DHT22;11395;53.204;6.502;2023-02-03T16:16:56;23.10;58.10
22456;DHT22;11395;53.204;6.502;2023-02-03T16:19:23;23.00;58.20
22456;DHT22;11395;53.204;6.502;2023-02-03T16:21:57;23.00;58.10
22456;DHT22;11395;53.204;6.502;2023-02-03T16:24:41;23.00;58.20
22456;DHT22;11395;53.204;6.502;2023-02-03T16:29:53;23.10;58.10
22456;DHT22;11395;53.204;6.502;2023-02-03T16:32:39;23.20;58.00
22456;DHT22;11395;53.204;6.502;2023-02-03T16:35:23;23.20;57.90
22456;DHT22;11395;53.204;6.502;2023-02-03T16:38:16;23.30;57.80
22456;DHT22;11395;53.204;6.502;2023-02-03T16:41:03;23.30;57.80
22456;DHT22;11395;53.204;6.502;2023-02-03T16:43:54;23.30;57.70
22456;DHT22;11395;53.204;6.502;2023-02-03T16:46:39;23.30;57.60
22456;DHT22;11395;53.204;6.502;2023-02-03T16:49:23;23.30;57.60
22456;DHT22;11395;53.204;6.502;2023-02-03T16:52:08;23.40;57.60
22456;DHT22;11395;53.204;6.502;2023-02-03T16:54:34;23.40;57.50
22456;DHT22;11395;53.204;6.502;2023-02-03T16:57:00;23.30;57.20
22456;DHT22;11395;53.204;6.502;2023-02-03T16:59:27;23.30;57.10
22456;DHT22;11395;53.204;6.502;2023-02-03T17:01:53;23.30;57.20
22456;DHT22;11395;53.204;6.502;2023-02-03T17:04:19;23.30;57.20
22456;DHT22;11395;53.204;6.502;2023-02-03T17:06:45;23.30;57.80
22456;DHT22;11395;53.204;6.502;2023-02-03T17:09:19;23.20;57.30
22456;DHT22;11395;53.204;6.502;2023-02-03T17:11:48;23.20;57.70
22456;DHT22;11395;53.204;6.502;2023-02-03T17:14:14;23.20;58.00
22456;DHT22;11395;53.204;6.502;2023-02-03T17:16:40;23.20;58.20
22456;DHT22;11395;53.204;6.502;2023-02-03T17:19:10;23.20;59.00
22456;DHT22;11395;53.204;6.502;2023-02-03T17:21:37;23.20;59.40
22456;DHT22;11395;53.204;6.502;2023-02-03T17:24:04;23.20;59.50
22456;DHT22;11395;53.204;6.502;2023-02-03T17:26:30;23.30;59.40
22456;DHT22;11395;53.204;6.502;2023-02-03T17:28:58;23.30;59.60
22456;DHT22;11395;53.204;6.502;2023-02-03T17:31:28;23.30;59.20
22456;DHT22;11395;53.204;6.502;2023-02-03T17:33:55;23.30;58.80
22456;DHT22;11395;53.204;6.502;2023-02-03T17:36:22;23.20;59.20
22456;DHT22;11395;53.204;6.502;2023-02-03T17:38:53;23.30;59.40
22456;DHT22;11395;53.204;6.502;2023-02-03T17:41:23;23.30;60.00
22456;DHT22;11395;53.204;6.502;2023-02-03T17:43:49;23.30;60.00
22456;DHT22;11395;53.204;6.502;2023-02-03T17:46:25;23.20;60.30
22456;DHT22;11395;53.204;6.502;2023-02-03T17:48:51;23.20;60.80
22456;DHT22;11395;53.204;6.502;2023-02-03T17:51:20;23.20;60.70
22456;DHT22;11395;53.204;6.502;2023-02-03T17:53:47;23.20;61.10
22456;DHT22;11395;53.204;6.502;2023-02-03T17:56:23;23.10;61.30
22456;DHT22;11395;53.204;6.502;2023-02-03T17:58:58;23.10;61.20
22456;DHT22;11395;53.204;6.502;2023-02-03T18:01:24;23.10;61.20
22456;DHT22;11395;53.204;6.502;2023-02-03T18:03:56;23.00;61.20
22456;DHT22;11395;53.204;6.502;2023-02-03T18:06:24;23.00;60.90
22456;DHT22;11395;53.204;6.502;2023-02-03T18:08:51;23.00;60.80
22456;DHT22;11395;53.204;6.502;2023-02-03T18:11:18;23.10;61.60
22456;DHT22;11395;53.204;6.502;2023-02-03T18:13:47;23.20;60.90
22456;DHT22;11395;53.204;6.502;2023-02-03T18:16:17;23.30;61.00
22456;DHT22;11395;53.204;6.502;2023-02-03T18:18:45;23.30;60.70
22456;DHT22;11395;53.204;6.502;2023-02-03T18:21:17;23.40;60.70
22456;DHT22;11395;53.204;6.502;2023-02-03T18:23:57;23.50;60.50
22456;DHT22;11395;53.204;6.502;2023-02-03T18:26:30;23.60;60.70
22456;DHT22;11395;53.204;6.502;2023-02-03T18:29:05;23.60;59.70